Time;durP1;ratioP1;P1;durP2;ratioP2;P2;SDS_P1;SDS_P2;PMS_P1;PMS_P2;Temp;Humidity;BMP_temperature;BMP_pressure;BME280_temperature;BME280_humidity;BME280_pressure;Samples;Min_cycle;Max_cycle;Signal;HPM_P1;HPM_P2
2023/10/04 00:00:18;;;;;;;2.45;0.90;;;;;;;22.58;43.69;102500.22;5027285;28;20432;-69
2023/10/04 00:02:45;;;;;;;3.90;0.80;;;;;;;23.12;42.67;102487.69;5026308;28;20128;-69
2023/10/04 00:05:15;;;;;;;5.68;1.02;;;;;;;23.26;42.17;102491.63;5029006;28;20029;-69
2023/10/04 00:07:41;;;;;;;6.72;1.13;;;;;;;22.76;42.94;102501.38;5024035;28;20128;-69
2023/10/04 00:10:08;;;;;;;5.05;1.15;;;;;;;23.83;41.45;102494.78;5023510;28;20026;-69
2023/10/04 00:12:33;;;;;;;5.68;1.17;;;;;;;23.17;41.92;102501.72;5008711;28;20132;-69
2023/10/04 00:14:58;;;;;;;6.68;0.88;;;;;;;22.71;43.18;102506.03;5014163;28;20163;-69
2023/10/04 00:17:24;;;;;;;6.40;0.95;;;;;;;23.16;42.33;102494.66;5006962;28;20079;-69
2023/10/04 00:19:49;;;;;;;5.43;0.80;;;;;;;23.19;42.57;102510.53;5008069;28;20033;-69
2023/10/04 00:22:18;;;;;;;8.98;1.33;;;;;;;23.38;42.08;102509.84;4998582;28;20476;-69
2023/10/04 00:24:44;;;;;;;2.33;0.57;;;;;;;23.49;41.97;102512.09;5029137;28;20046;-69
2023/10/04 00:27:10;;;;;;;5.22;0.88;;;;;;;22.14;44.00;102522.06;5026247;28;20044;-69
2023/10/04 00:29:36;;;;;;;1.45;1.00;;;;;;;23.18;43.14;102516.78;5027481;28;20120;-69
2023/10/04 00:32:04;;;;;;;2.78;1.00;;;;;;;23.30;42.92;102511.91;5019910;28;20029;-69
2023/10/04 00:34:29;;;;;;;7.40;0.98;;;;;;;23.63;41.68;102509.78;4992015;28;20053;-69
2023/10/04 00:36:55;;;;;;;7.25;0.90;;;;;;;22.72;43.35;102520.19;5007069;28;20065;-69
2023/10/04 00:39:20;;;;;;;4.38;1.00;;;;;;;22.11;44.73;102521.31;4992153;28;20492;-69
2023/10/04 00:41:46;;;;;;;3.17;0.82;;;;;;;22.28;43.90;102523.41;5008136;28;20089;-69
2023/10/04 00:44:12;;;;;;;5.60;1.50;;;;;;;22.58;43.14;102528.69;5027267;28;20026;-69
2023/10/04 00:46:41;;;;;;;3.90;1.10;;;;;;;23.44;41.63;102512.28;5007422;28;20087;-69
2023/10/04 00:49:08;;;;;;;2.83;0.70;;;;;;;23.11;42.18;102517.91;5019047;28;20091;-69
2023/10/04 00:51:36;;;;;;;1.95;0.40;;;;;;;22.58;43.31;102526.00;5030778;28;20033;-69
2023/10/04 00:54:07;;;;;;;3.17;1.13;;;;;;;22.55;43.94;102519.00;5030919;28;20470;-69
2023/10/04 00:56:35;;;;;;;1.67;0.95;;;;;;;23.04;42.74;102521.75;5014563;28;20060;-69
2023/10/04 00:59:05;;;;;;;4.57;0.93;;;;;;;22.79;44.00;102530.63;5030617;28;20029;-69
2023/10/04 01:01:31;;;;;;;9.05;1.30;;;;;;;22.51;44.36;102539.53;5013611;28;20036;-69
2023/10/04 01:03:59;;;;;;;3.70;1.30;;;;;;;22.38;44.56;102538.22;5030578;28;20045;-69
2023/10/04 01:06:24;;;;;;;8.60;1.00;;;;;;;22.02;45.56;102530.44;5013986;28;20053;-69
2023/10/04 01:08:53;;;;;;;3.22;0.95;;;;;;;22.43;45.10;102532.72;5013851;28;20057;-69
2023/10/04 01:11:20;;;;;;;2.80;0.70;;;;;;;23.48;42.68;102527.25;5026765;28;20038;-69
2023/10/04 01:13:47;;;;;;;6.00;1.08;;;;;;;21.99;45.18;102541.19;5012055;28;20021;-69
2023/10/04 01:16:15;;;;;;;4.63;1.17;;;;;;;22.58;44.15;102550.00;5025159;28;20034;-69
2023/10/04 01:18:41;;;;;;;7.45;1.20;;;;;;;21.63;46.02;102546.72;5031815;28;20519;-69
2023/10/04 01:21:06;;;;;;;4.85;1.27;;;;;;;22.18;44.93;102550.34;5014112;28;20053;-69
2023/10/04 01:23:33;;;;;;;6.50;1.33;;;;;;;21.88;46.17;102546.84;5010878;28;20065;-69
2023/10/04 01:26:00;;;;;;;5.90;1.10;;;;;;;22.35;44.70;102546.28;5008974;28;20033;-69
2023/10/04 01:28:28;;;;;;;7.18;1.30;;;;;;;21.57;45.67;102550.44;5010517;28;20034;-69
2023/10/04 01:31:00;;;;;;;4.18;1.00;;;;;;;22.98;43.71;102545.94;4992559;28;20074;-69
2023/10/04 01:33:28;;;;;;;5.57;1.00;;;;;;;22.10;44.87;102540.84;4993288;28;20444;-69
2023/10/04 01:35:54;;;;;;;13.63;1.63;;;;;;;23.03;43.39;102542.19;5010426;28;20088;-69
2023/10/04 01:38:27;;;;;;;5.45;1.08;;;;;;;22.78;43.92;102536.84;5010948;28;20033;-69
2023/10/04 01:40:54;;;;;;;4.70;1.52;;;;;;;22.42;44.60;102538.97;5011011;28;20049;-69
2023/10/04 01:43:21;;;;;;;4.97;1.10;;;;;;;22.40;44.41;102541.69;5009305;28;20602;-69
2023/10/04 01:45:55;;;;;;;4.28;1.23;;;;;;;22.82;43.86;102541.16;5004456;28;20033;-69
2023/10/04 01:48:21;;;;;;;6.03;0.90;;;;;;;22.50;44.89;102542.25;5009834;28;20586;-69
2023/10/04 01:50:48;;;;;;;4.60;0.80;;;;;;;22.41;44.73;102554.09;5007372;28;20033;-69
2023/10/04 01:53:14;;;;;;;4.70;1.08;;;;;;;22.62;44.85;102538.31;5009827;28;20033;-68
2023/10/04 01:55:40;;;;;;;7.85;1.50;;;;;;;22.77;44.76;102534.25;5008892;28;20029;-68
2023/10/04 01:58:06;;;;;;;7.28;0.98;;;;;;;22.98;43.88;102528.13;5009915;28;20060;-68
2023/10/04 02:00:33;;;;;;;5.40;1.40;;;;;;;23.12;43.49;102535.69;4993754;28;20065;-68
2023/10/04 02:02:59;;;;;;;5.82;0.90;;;;;;;21.75;46.18;102526.84;5008383;28;20030;-68
2023/10/04 02:05:31;;;;;;;3.80;1.25;;;;;;;22.83;44.04;102529.59;5006389;28;20034;-69
2023/10/04 02:07:57;;;;;;;6.95;1.40;;;;;;;23.11;43.60;102528.59;4989860;28;20026;-69
2023/10/04 02:10:23;;;;;;;5.40;1.02;;;;;;;23.30;42.70;102526.16;4990460;28;20033;-69
2023/10/04 02:12:50;;;;;;;5.43;1.17;;;;;;;22.91;43.46;102525.75;5008262;28;20105;-69
2023/10/04 02:15:17;;;;;;;7.13;1.15;;;;;;;23.33;42.46;102522.50;5008375;28;20115;-69
2023/10/04 02:17:46;;;;;;;5.82;0.90;;;;;;;22.91;43.38;102531.94;5009907;28;20441;-69
2023/10/04 02:20:15;;;;;;;7.70;1.60;;;;;;;22.70;43.57;102533.59;5009628;28;20438;-68
2023/10/04 02:22:40;;;;;;;5.22;0.98;;;;;;;22.43;44.30;102541.56;5009971;28;20034;-69
2023/10/04 02:25:06;;;;;;;3.30;0.88;;;;;;;22.71;43.65;102538.00;5022992;28;20052;-69
2023/10/04 02:27:32;;;;;;;6.80;1.52;;;;;;;22.31;44.71;102548.16;4992967;28;20077;-68
2023/10/04 02:29:58;;;;;;;4.28;1.00;;;;;;;22.34;44.60;102552.56;5001106;28;20035;-68
2023/10/04 02:32:25;;;;;;;3.08;1.08;;;;;;;21.50;46.24;102547.03;5030819;28;20025;-68
2023/10/04 02:34:52;;;;;;;3.45;1.15;;;;;;;22.66;43.92;102553.28;5025621;28;20557;-69
2023/10/04 02:37:19;;;;;;;1.75;0.68;;;;;;;22.18;45.44;102560.13;4992847;28;20399;-69
2023/10/04 02:39:44;;;;;;;2.65;0.95;;;;;;;22.27;45.32;102558.94;5011206;28;20472;-69
2023/10/04 02:42:10;;;;;;;2.08;0.70;;;;;;;;;;4999757;28;20063;-68
2023/10/04 02:44:36;;;;;;;4.97;1.05;;;;;;;21.55;46.40;102570.00;5007410;28;20026;-69
2023/10/04 02:47:06;;;;;;;4.22;0.80;;;;;;;21.38;46.89;102566.00;5029926;28;20100;-69
2023/10/04 02:49:39;;;;;;;5.55;0.90;;;;;;;21.86;46.34;102568.19;5012715;28;20040;-69
2023/10/04 02:52:07;;;;;;;5.00;1.17;;;;;;;22.22;45.28;102571.56;5011679;28;20520;-69
2023/10/04 02:54:33;;;;;;;4.05;1.15;;;;;;;21.59;46.15;102566.34;5012419;28;20148;-69
2023/10/04 02:57:00;;;;;;;2.13;0.82;;;;;;;22.66;44.40;102570.13;5011824;28;20021;-69
2023/10/04 02:59:26;;;;;;;3.97;0.85;;;;;;;22.03;45.77;102570.31;5010902;28;20396;-68
2023/10/04 03:01:52;;;;;;;7.10;0.98;;;;;;;21.28;46.71;102577.81;5024770;28;20136;-68
2023/10/04 03:04:19;;;;;;;1.00;0.60;;;;;;;21.56;47.11;102563.78;5007393;28;20506;-69
2023/10/04 03:06:45;;;;;;;3.72;0.95;;;;;;;;;;4992937;28;20025;-69
2023/10/04 03:09:11;;;;;;;2.95;0.70;;;;;;;22.20;45.43;102561.81;5010445;28;20034;-69
2023/10/04 03:11:37;;;;;;;5.13;1.58;;;;;;;22.08;45.27;102554.22;5008443;28;20535;-68
2023/10/04 03:14:06;;;;;;;7.88;1.20;;;;;;;21.95;45.56;102561.69;5018476;28;20029;-69
2023/10/04 03:16:32;;;;;;;6.72;1.63;;;;;;;21.51;46.25;102564.75;5016045;28;20014;-69
2023/10/04 03:18:58;;;;;;;3.58;0.98;;;;;;;21.44;46.97;102560.50;5024535;28;20477;-68
2023/10/04 03:21:28;;;;;;;3.38;1.08;;;;;;;22.21;45.52;102562.69;5009121;28;20077;-69
2023/10/04 03:23:55;;;;;;;4.07;0.98;;;;;;;22.05;45.22;102564.97;5005350;28;20610;-69
2023/10/04 03:26:21;;;;;;;1.90;0.90;;;;;;;21.76;46.19;102556.09;5029433;28;20114;-69
2023/10/04 03:28:46;;;;;;;5.25;1.02;;;;;;;21.11;47.29;102563.19;5018374;28;20033;-69
2023/10/04 03:31:14;;;;;;;6.43;1.30;;;;;;;21.04;47.94;102550.97;4992164;28;20076;-68
2023/10/04 03:33:40;;;;;;;3.63;0.90;;;;;;;20.89;47.89;102548.75;5019609;28;20029;-69
2023/10/04 03:36:06;;;;;;;6.28;1.02;;;;;;;22.05;46.13;102540.13;5029393;28;20359;-68
2023/10/04 03:38:35;;;;;;;6.85;1.20;;;;;;;21.28;47.36;102548.56;5028710;28;20504;-68
2023/10/04 03:41:03;;;;;;;8.10;1.63;;;;;;;21.76;46.32;102550.75;5026999;28;20055;-68
2023/10/04 03:43:29;;;;;;;5.88;1.42;;;;;;;21.65;46.49;102552.84;5005463;28;20025;-69
2023/10/04 03:45:55;;;;;;;12.45;1.45;;;;;;;22.30;45.25;102567.72;5002174;28;20378;-68
2023/10/04 03:48:21;;;;;;;6.53;2.20;;;;;;;21.94;46.21;102559.09;5027618;28;20021;-68
2023/10/04 03:50:51;;;;;;;8.40;1.00;;;;;;;21.93;46.01;102568.00;5012660;28;20033;-68
2023/10/04 03:53:21;;;;;;;8.75;1.10;;;;;;;21.97;46.27;102564.34;5008711;28;20030;-69
2023/10/04 03:55:47;;;;;;;5.53;1.70;;;;;;;21.68;46.62;102564.28;5008585;28;20065;-68
2023/10/04 03:58:15;;;;;;;7.45;1.08;;;;;;;22.19;45.44;102560.06;5008983;28;20063;-69
2023/10/04 04:00:41;;;;;;;2.38;0.70;;;;;;;22.13;45.51;102557.63;4995942;28;20113;-69
2023/10/04 04:03:08;;;;;;;3.90;1.55;;;;;;;22.70;44.64;102555.75;5027957;28;20017;-69
2023/10/04 04:05:39;;;;;;;2.13;1.00;;;;;;;22.49;44.96;102553.81;5027429;28;20029;-68
2023/10/04 04:08:05;;;;;;;7.28;1.40;;;;;;;22.47;45.25;102548.53;5009868;28;20054;-68
2023/10/04 04:10:31;;;;;;;1.80;0.98;;;;;;;22.09;45.72;102536.44;5009441;28;20069;-69
2023/10/04 04:12:57;;;;;;;4.85;1.05;;;;;;;21.93;45.61;102533.41;5006046;28;20044;-68
2023/10/04 04:15:23;;;;;;;7.22;1.20;;;;;;;22.19;44.92;102536.09;5024066;28;20033;-69
2023/10/04 04:17:49;;;;;;;9.02;1.60;;;;;;;22.41;45.48;102535.44;5029400;28;20053;-69
2023/10/04 04:20:16;;;;;;;6.43;1.52;;;;;;;22.41;45.55;102527.44;5029146;28;20130;-68
2023/10/04 04:22:46;;;;;;;4.68;1.02;;;;;;;22.46;45.04;102520.19;5028646;28;20025;-68
2023/10/04 04:25:15;;;;;;;2.92;1.27;;;;;;;22.42;44.96;102523.88;5008351;28;20042;-69
2023/10/04 04:27:44;;;;;;;6.75;1.65;;;;;;;22.30;45.43;102524.25;5011903;28;20022;-69
2023/10/04 04:30:18;;;;;;;4.07;0.98;;;;;;;22.51;45.34;102539.53;5012700;28;20037;-69
2023/10/04 04:32:44;;;;;;;3.78;1.17;;;;;;;22.53;45.08;102547.47;5013952;28;20116;-68
2023/10/04 04:35:15;;;;;;;4.38;1.10;;;;;;;22.62;44.33;102548.97;5032782;28;20503;-68
2023/10/04 04:37:40;;;;;;;6.20;1.15;;;;;;;21.68;46.94;102555.44;5030911;28;20036;-68
2023/10/04 04:40:09;;;;;;;4.78;1.30;;;;;;;21.01;48.62;102556.41;5026075;28;20406;-68
2023/10/04 04:42:37;;;;;;;3.50;0.82;;;;;;;21.44;47.35;102560.50;5012127;28;20034;-68
2023/10/04 04:45:11;;;;;;;8.52;1.35;;;;;;;21.88;46.79;102564.63;4995015;28;20079;-68
2023/10/04 04:47:37;;;;;;;4.72;1.40;;;;;;;22.19;46.09;102564.53;5013061;28;20136;-69
2023/10/04 04:50:03;;;;;;;10.82;1.33;;;;;;;22.53;45.37;102580.31;4994368;28;20018;-68
2023/10/04 04:52:31;;;;;;;5.43;1.00;;;;;;;22.62;45.22;102562.28;5019526;28;20505;-69
2023/10/04 04:54:58;;;;;;;6.28;1.25;;;;;;;22.59;45.48;102568.59;5025790;28;20390;-69
2023/10/04 04:57:23;;;;;;;11.10;2.15;;;;;;;22.19;45.71;102570.72;5012123;28;20060;-68
2023/10/04 04:59:55;;;;;;;6.68;1.48;;;;;;;22.59;44.66;102573.06;5025774;28;20056;-69
2023/10/04 05:02:20;;;;;;;6.20;1.33;;;;;;;22.03;45.97;102566.78;5031520;28;20025;-69
2023/10/04 05:04:47;;;;;;;4.72;1.20;;;;;;;21.75;47.01;102575.63;5013928;28;20375;-69
2023/10/04 05:07:13;;;;;;;4.10;1.40;;;;;;;22.22;46.07;102574.22;5031878;28;20473;-68
2023/10/04 05:09:38;;;;;;;5.97;1.52;;;;;;;22.41;45.58;102583.38;5021413;28;20080;-68
2023/10/04 05:12:04;;;;;;;4.72;1.20;;;;;;;21.96;46.03;102579.41;5010780;28;20109;-69
2023/10/04 05:14:30;;;;;;;4.93;1.40;;;;;;;21.86;46.53;102581.50;5009567;28;20029;-68
2023/10/04 05:16:55;;;;;;;3.22;1.10;;;;;;;21.15;47.86;102596.75;5012093;28;20033;-68
2023/10/04 05:19:20;;;;;;;6.47;1.45;;;;;;;21.52;47.17;102590.44;5010691;28;20378;-68
2023/10/04 05:21:46;;;;;;;7.20;1.63;;;;;;;21.93;46.02;102594.63;5011091;28;20026;-68
2023/10/04 05:24:11;;;;;;;5.35;1.75;;;;;;;21.73;46.85;102587.22;5018023;28;20057;-68
2023/10/04 05:26:37;;;;;;;6.53;1.30;;;;;;;21.48;47.53;102594.09;4994015;28;20097;-69
2023/10/04 05:29:03;;;;;;;7.90;1.38;;;;;;;21.77;46.75;102595.06;5009709;28;20030;-69
2023/10/04 05:31:28;;;;;;;6.35;1.45;;;;;;;21.43;47.93;102596.03;5010676;28;20362;-69
2023/10/04 05:33:54;;;;;;;3.97;1.58;;;;;;;21.29;48.48;102598.19;5010568;28;20030;-69
2023/10/04 05:36:20;;;;;;;5.28;1.50;;;;;;;21.15;48.28;102596.75;5010649;28;20065;-68
2023/10/04 05:38:45;;;;;;;7.28;2.25;;;;;;;21.23;48.75;102603.69;5009196;28;20045;-69
2023/10/04 05:41:11;;;;;;;8.07;1.88;;;;;;;21.17;49.38;102594.94;5010155;28;20188;-69
2023/10/04 05:43:36;;;;;;;5.32;0.98;;;;;;;21.09;49.23;102602.25;4994356;28;20037;-68
2023/10/04 05:46:04;;;;;;;8.45;1.13;;;;;;;20.75;50.22;102603.09;5010919;28;20025;-69
2023/10/04 05:48:29;;;;;;;7.07;1.33;;;;;;;20.57;50.83;102608.84;5007149;28;20029;-68
2023/10/04 05:50:55;;;;;;;4.25;1.15;;;;;;;20.91;50.39;102608.03;5021547;28;20486;-68
2023/10/04 05:53:21;;;;;;;5.00;1.25;;;;;;;20.77;50.45;102611.94;5008493;28;20034;-68
2023/10/04 05:55:48;;;;;;;4.95;1.13;;;;;;;20.79;50.70;102615.41;4991993;28;20026;-68
2023/10/04 05:58:16;;;;;;;4.15;1.13;;;;;;;20.66;50.75;102613.91;5009927;28;20157;-68
2023/10/04 06:00:41;;;;;;;4.10;1.10;;;;;;;20.23;51.65;102617.59;5008590;28;20467;-68
2023/10/04 06:03:10;;;;;;;6.05;1.65;;;;;;;20.43;51.64;102619.78;5011071;28;20025;-68
2023/10/04 06:05:38;;;;;;;5.50;1.65;;;;;;;20.57;51.19;102619.47;4989725;28;20030;-69
2023/10/04 06:08:12;;;;;;;2.90;1.60;;;;;;;20.02;52.98;102621.56;4989665;28;20029;-69
2023/10/04 06:10:38;;;;;;;2.08;1.02;;;;;;;20.71;52.12;102622.69;4990744;28;20500;-68
2023/10/04 06:13:11;;;;;;;5.95;1.85;;;;;;;20.56;52.66;102623.91;4997117;28;20057;-68
2023/10/04 06:15:39;;;;;;;5.10;1.33;;;;;;;20.16;53.22;102625.69;4990867;28;20030;-68
2023/10/04 06:18:05;;;;;;;10.68;1.52;;;;;;;19.57;55.75;102636.59;5006722;28;20164;-68
2023/10/04 06:20:33;;;;;;;8.32;2.10;;;;;;;20.60;53.29;102619.41;5004021;28;20532;-68
2023/10/04 06:23:00;;;;;;;10.57;1.55;;;;;;;20.78;53.85;102621.63;4991966;28;20391;-69
2023/10/04 06:25:28;;;;;;;9.60;2.13;;;;;;;20.70;53.89;102626.25;5030794;28;20462;-69
2023/10/04 06:27:56;;;;;;;7.07;1.75;;;;;;;20.00;55.72;102624.25;5009642;28;20037;-69
2023/10/04 06:30:31;;;;;;;6.22;1.35;;;;;;;21.31;52.88;102628.28;5029252;28;20068;-69
2023/10/04 06:32:59;;;;;;;3.65;1.35;;;;;;;21.10;53.40;102635.91;5029757;28;20370;-69
2023/10/04 06:35:26;;;;;;;8.27;1.55;;;;;;;20.96;53.61;102633.56;5026523;28;20812;-69
2023/10/04 06:37:54;;;;;;;8.70;1.48;;;;;;;20.98;53.19;102628.25;5002840;28;20070;-69
2023/10/04 06:40:21;;;;;;;6.35;2.13;;;;;;;20.72;54.71;102628.88;5008885;28;20040;-69
2023/10/04 06:42:48;;;;;;;6.00;1.42;;;;;;;20.93;53.74;102635.44;5030068;28;20086;-69
2023/10/04 06:45:16;;;;;;;4.05;1.20;;;;;;;20.66;55.27;102629.84;5030108;28;20054;-69
2023/10/04 06:47:43;;;;;;;6.53;1.60;;;;;;;20.41;55.90;102635.75;5029052;28;20041;-69
2023/10/04 06:50:13;;;;;;;8.10;1.63;;;;;;;20.92;55.42;102636.34;5011271;28;20025;-69
2023/10/04 06:52:39;;;;;;;5.53;2.05;;;;;;;21.10;54.96;102646.53;5028984;28;20025;-69
2023/10/04 06:55:08;;;;;;;7.70;1.23;;;;;;;22.14;52.06;102641.03;5005607;28;20037;-68
2023/10/04 06:57:33;;;;;;;6.70;1.52;;;;;;;21.71;53.25;102648.47;5022911;28;20103;-69
2023/10/04 06:59:59;;;;;;;9.07;2.90;;;;;;;22.41;51.51;102646.44;5029822;28;20429;-68
2023/10/04 07:02:24;;;;;;;8.98;1.90;;;;;;;21.64;52.85;102646.91;5028793;28;20118;-68
2023/10/04 07:04:50;;;;;;;3.35;1.50;;;;;;;21.23;54.67;102643.56;5011901;28;20048;-68
2023/10/04 07:07:17;;;;;;;3.30;1.50;;;;;;;21.34;54.34;102655.63;5009681;28;20405;-69
2023/10/04 07:09:43;;;;;;;3.33;1.17;;;;;;;22.01;53.26;102649.38;5026877;28;20519;-68
2023/10/04 07:12:08;;;;;;;11.43;2.22;;;;;;;21.39;54.63;102652.88;5006042;28;20033;-69
2023/10/04 07:14:34;;;;;;;8.18;1.52;;;;;;;21.78;54.40;102652.72;5005141;28;20022;-69
2023/10/04 07:17:00;;;;;;;4.88;1.33;;;;;;;21.89;53.78;102640.91;5027588;28;20028;-69
2023/10/04 07:19:28;;;;;;;6.35;1.45;;;;;;;22.16;53.34;102650.72;5007876;28;20029;-69
2023/10/04 07:21:55;;;;;;;6.00;2.40;;;;;;;22.76;52.23;102650.63;5023649;28;20033;-69
2023/10/04 07:24:20;;;;;;;4.00;1.33;;;;;;;22.32;52.77;102650.22;5021629;28;20041;-69
2023/10/04 07:26:45;;;;;;;12.35;3.15;;;;;;;21.62;54.76;102654.91;5005528;28;20111;-68
2023/10/04 07:29:11;;;;;;;5.90;2.08;;;;;;;22.57;53.20;102654.81;5003869;28;20606;-68
2023/10/04 07:31:36;;;;;;;7.88;1.73;;;;;;;22.60;52.16;102649.38;5022881;28;20452;-67
2023/10/04 07:34:02;;;;;;;11.70;1.40;;;;;;;22.80;51.74;102651.41;5018315;28;20030;-69
2023/10/04 07:36:28;;;;;;;7.55;1.67;;;;;;;22.97;51.72;102653.50;5005129;28;20027;-68
2023/10/04 07:38:53;;;;;;;9.52;2.75;;;;;;;22.09;53.46;102653.59;5005261;28;20025;-68
2023/10/04 07:41:19;;;;;;;6.13;1.70;;;;;;;21.59;55.87;102664.78;5002243;28;20438;-68
2023/10/04 07:43:44;;;;;;;11.55;1.98;;;;;;;20.59;59.13;102665.47;5002731;28;20025;-68
2023/10/04 07:46:09;;;;;;;6.38;1.73;;;;;;;21.22;57.46;102665.75;5019851;28;20025;-68
2023/10/04 07:48:35;;;;;;;6.97;1.58;;;;;;;21.95;55.43;102677.97;5015967;28;20014;-68
2023/10/04 07:51:01;;;;;;;12.93;1.67;;;;;;;22.84;53.59;102674.38;5015159;28;20088;-68
2023/10/04 07:53:27;;;;;;;10.77;1.75;;;;;;;21.70;57.14;102681.31;5008579;28;20027;-68
2023/10/04 07:55:52;;;;;;;9.07;2.35;;;;;;;22.46;55.21;102685.34;5010233;28;20485;-68
2023/10/04 07:58:17;;;;;;;13.38;2.13;;;;;;;21.57;56.75;102679.91;5028665;28;20443;-68
2023/10/04 08:00:43;;;;;;;10.48;1.63;;;;;;;22.32;55.25;102682.19;5028314;28;20029;-68
2023/10/04 08:03:09;;;;;;;9.20;1.48;;;;;;;22.83;54.10;102684.19;5014695;28;20075;-68
2023/10/04 08:05:35;;;;;;;6.85;1.40;;;;;;;22.22;55.23;102686.94;5017535;28;20009;-68
2023/10/04 08:08:03;;;;;;;5.22;2.03;;;;;;;21.79;56.89;102697.03;5010303;28;20400;-72
2023/10/04 08:10:31;;;;;;;2.40;1.25;;;;;;;23.38;51.91;102692.16;5025271;28;20022;-73
2023/10/04 08:13:01;;;;;;;5.68;1.48;;;;;;;24.07;50.74;102695.94;5027979;28;21085;-73
2023/10/04 08:15:29;;;;;;;5.70;1.50;;;;;;;23.63;51.32;102698.41;5013081;28;20140;-73
2023/10/04 08:17:56;;;;;;;4.72;1.63;;;;;;;21.68;56.55;102709.78;5011847;28;20043;-73
2023/10/04 08:20:23;;;;;;;9.07;1.30;;;;;;;23.15;53.74;102706.28;5031158;28;20040;-73
2023/10/04 08:22:49;;;;;;;5.82;1.55;;;;;;;24.10;51.04;102701.16;5029648;28;20028;-74
2023/10/04 08:25:24;;;;;;;7.63;1.75;;;;;;;24.61;49.27;102690.31;5029947;28;20417;-72
2023/10/04 08:27:50;;;;;;;5.80;1.83;;;;;;;22.71;52.91;102700.56;5029321;28;20033;-73
2023/10/04 08:30:16;;;;;;;7.28;1.42;;;;;;;22.53;54.51;102702.00;5014355;28;20436;-73
2023/10/04 08:32:44;;;;;;;9.10;1.30;;;;;;;22.03;55.60;102700.78;5012987;28;20025;-72
2023/10/04 08:35:27;;;;;;;12.68;2.20;;;;;;;21.63;56.09;102698.38;5021544;28;20387;-73
2023/10/04 08:37:54;;;;;;;7.43;1.60;;;;;;;22.70;54.10;102686.34;5012907;28;20121;-73
2023/10/04 08:40:24;;;;;;;9.13;1.40;;;;;;;23.49;50.69;102694.44;5025159;28;20045;-72
2023/10/04 08:42:51;;;;;;;4.72;1.50;;;;;;;24.73;48.18;102685.34;5011928;28;20108;-73
2023/10/04 08:45:17;;;;;;;9.82;1.80;;;;;;;23.22;51.23;102696.28;5005419;28;20025;-73
2023/10/04 08:47:52;;;;;;;6.25;1.42;;;;;;;22.56;53.53;102701.03;5031660;28;20389;-73
2023/10/04 08:50:35;;;;;;;6.15;1.45;;;;;;;23.41;51.42;102696.50;5021740;28;20040;-72
2023/10/04 08:53:10;;;;;;;7.55;2.30;;;;;;;23.53;50.18;102690.75;5031910;28;20753;-72
2023/10/04 08:55:43;;;;;;;7.65;1.70;;;;;;;23.82;49.71;102691.47;5029514;28;20079;-72
2023/10/04 08:58:11;;;;;;;8.65;1.60;;;;;;;21.80;54.73;102689.91;5030996;28;20477;-73
2023/10/04 09:00:43;;;;;;;8.02;1.60;;;;;;;23.24;50.69;102691.75;5030186;28;20053;-73
2023/10/04 09:03:11;;;;;;;9.52;1.83;;;;;;;23.03;51.10;102696.84;5019543;28;20025;-73
2023/10/04 09:05:37;;;;;;;4.68;1.35;;;;;;;23.02;51.87;102687.09;5031845;28;20037;-74
2023/10/04 09:08:04;;;;;;;8.35;1.75;;;;;;;23.74;49.66;102693.56;5013197;28;20057;-73
2023/10/04 09:10:33;;;;;;;2.45;1.10;;;;;;;24.09;49.00;102680.72;4998073;28;20034;-73
2023/10/04 09:13:01;;;;;;;7.80;1.85;;;;;;;23.20;50.90;102683.00;5020380;28;20036;-73
2023/10/04 09:15:27;;;;;;;6.80;1.60;;;;;;;23.58;50.57;102685.22;5009639;28;20400;-72
2023/10/04 09:18:02;;;;;;;7.07;1.73;;;;;;;22.93;51.50;102691.84;5023938;28;20052;-73
2023/10/04 09:20:32;;;;;;;5.95;1.45;;;;;;;23.76;49.35;102691.69;5016845;28;20391;-73
2023/10/04 09:23:02;;;;;;;4.05;1.48;;;;;;;22.49;51.97;102695.91;5022851;28;20485;-73
2023/10/04 09:25:40;;;;;;;8.00;1.50;;;;;;;23.88;50.13;102693.09;5012514;28;20389;-73
2023/10/04 09:28:09;;;;;;;6.75;1.50;;;;;;;24.32;49.03;102689.66;5031686;28;20029;-73
2023/10/04 09:30:36;;;;;;;5.80;1.90;;;;;;;23.62;49.94;102704.69;5021717;28;20385;-73
2023/10/04 09:33:20;;;;;;;8.20;1.95;;;;;;;24.13;49.65;102706.38;5030202;28;20508;-73
2023/10/04 09:35:45;;;;;;;10.75;1.40;;;;;;;23.35;50.62;102702.03;5018575;28;20116;-72
2023/10/04 09:38:31;;;;;;;8.63;1.92;;;;;;;23.91;50.37;102702.78;5024322;28;20120;-72
2023/10/04 09:40:59;;;;;;;9.27;1.30;;;;;;;23.78;50.02;102710.31;5008834;28;20403;-71
2023/10/04 09:43:36;;;;;;;8.70;1.85;;;;;;;23.46;51.08;102702.53;5039157;28;20060;-71
2023/10/04 09:46:07;;;;;;;10.73;1.73;;;;;;;24.33;48.98;102696.72;5017486;28;20128;-71
2023/10/04 09:48:33;;;;;;;6.03;1.60;;;;;;;24.06;49.09;102696.88;5015378;28;20453;-71
2023/10/04 09:51:00;;;;;;;11.23;2.13;;;;;;;23.95;49.11;102696.41;5030239;28;20025;-71
2023/10/04 09:53:26;;;;;;;8.35;2.50;;;;;;;24.93;48.06;102680.13;5010182;28;20479;-71
2023/10/04 09:55:53;;;;;;;8.38;2.15;;;;;;;25.35;46.63;102682.78;5007323;28;20038;-71
2023/10/04 09:58:23;;;;;;;8.18;1.52;;;;;;;23.51;48.96;102692.56;5026574;28;20033;-72
2023/10/04 10:00:52;;;;;;;7.35;1.83;;;;;;;23.69;49.13;102685.69;5022691;28;20072;-71
2023/10/04 10:03:25;;;;;;;10.13;1.90;;;;;;;22.41;51.82;102689.94;5008591;28;20083;-71
2023/10/04 10:05:52;;;;;;;;;;;;;;;22.97;50.82;102690.84;5026779;28;20076;-71
2023/10/04 10:08:20;;;;;;;8.40;1.75;;;;;;;22.29;52.61;102698.28;5009584;28;19917;-72
2023/10/04 10:10:47;;;;;;;5.63;1.60;;;;;;;23.82;50.17;102694.16;5022167;28;20037;-71
2023/10/04 10:13:15;;;;;;;5.50;1.42;;;;;;;24.05;48.54;102681.75;5029647;28;20036;-71
2023/10/04 10:15:41;;;;;;;12.52;1.60;;;;;;;23.23;50.38;102691.78;5028979;28;20033;-71
2023/10/04 10:18:08;;;;;;;7.13;1.58;;;;;;;24.14;48.70;102681.41;5023812;28;20117;-70
2023/10/04 10:20:34;;;;;;;5.35;1.60;;;;;;;24.46;47.41;102676.59;5004776;28;20107;-71
2023/10/04 10:22:59;;;;;;;11.35;1.55;;;;;;;24.04;48.39;102680.91;5028110;28;20484;-72
2023/10/04 10:25:29;;;;;;;6.47;1.63;;;;;;;24.40;47.85;102679.53;5020870;28;20042;-71
2023/10/04 10:28:01;;;;;;;3.42;1.25;;;;;;;25.05;46.85;102679.59;5025876;28;20033;-71
2023/10/04 10:30:28;;;;;;;6.90;1.70;;;;;;;24.75;47.24;102682.59;5012347;28;20083;-72
2023/10/04 10:32:56;;;;;;;5.85;1.73;;;;;;;25.44;45.21;102676.16;5011806;28;20516;-72
2023/10/04 10:35:59;;;;;;;3.92;1.23;;;;;;;24.72;44.79;102680.06;5029365;28;20033;-72
2023/10/04 10:38:39;;;;;;;6.70;1.30;;;;;;;24.46;44.95;102692.63;4975104;28;20522;-72
2023/10/04 10:41:06;;;;;;;6.07;1.20;;;;;;;23.72;46.81;102687.38;5008283;28;20060;-71
2023/10/04 10:43:35;;;;;;;5.32;1.35;;;;;;;23.77;46.37;102688.09;4993177;28;20111;-71
2023/10/04 10:46:26;;;;;;;3.53;1.15;;;;;;;24.71;45.61;102672.97;4997299;28;20021;-71
2023/10/04 10:48:57;;;;;;;5.00;1.50;;;;;;;23.66;47.99;102674.28;5010254;28;20497;-71
2023/10/04 10:51:42;;;;;;;8.88;1.90;;;;;;;23.83;48.20;102671.84;5009279;28;20030;-71
2023/10/04 10:54:07;;;;;;;12.48;2.63;;;;;;;23.88;48.54;102666.38;5010833;28;20363;-71
2023/10/04 10:56:37;;;;;;;5.80;1.80;;;;;;;23.83;48.12;102668.31;5012272;28;20394;-71
2023/10/04 10:59:04;;;;;;;8.07;1.40;;;;;;;24.36;48.19;102672.56;5027603;28;20063;-72
2023/10/04 11:01:30;;;;;;;10.48;1.90;;;;;;;24.30;46.92;102673.66;5027425;28;20029;-71
2023/10/04 11:03:55;;;;;;;7.40;1.80;;;;;;;23.74;48.27;102672.22;5010319;28;20022;-72
2023/10/04 11:06:21;;;;;;;5.10;2.00;;;;;;;24.19;46.18;102667.88;5015857;28;20057;-71
2023/10/04 11:08:47;;;;;;;6.82;1.70;;;;;;;24.74;45.14;102670.16;5015343;28;20022;-74
2023/10/04 11:11:13;;;;;;;9.98;1.90;;;;;;;24.41;45.48;102665.22;5003885;28;20497;-74
2023/10/04 11:13:43;;;;;;;13.65;2.38;;;;;;;24.25;45.12;102666.75;5028172;28;20026;-72
2023/10/04 11:16:08;;;;;;;6.80;1.38;;;;;;;23.96;44.17;102666.97;5002136;28;20120;-74
2023/10/04 11:18:35;;;;;;;3.05;1.45;;;;;;;24.24;44.44;102665.03;5007815;28;20466;-73
2023/10/04 11:21:04;;;;;;;4.20;1.42;;;;;;;24.21;43.51;102666.88;5014160;28;20018;-75
2023/10/04 11:23:30;;;;;;;8.93;1.95;;;;;;;24.48;44.86;102663.19;5007809;28;20050;-74
2023/10/04 11:25:59;;;;;;;7.68;1.60;;;;;;;26.10;41.70;102653.56;5025935;28;20084;-73
2023/10/04 11:28:25;;;;;;;8.35;1.58;;;;;;;25.21;43.16;102664.63;5007455;28;20405;-74